createdAt,value
2018-07-24T00:00:25.638Z,16.63
2018-07-24T00:02:54.596Z,19.60
2018-07-24T00:05:23.705Z,16.33
2018-07-24T00:07:52.997Z,29.50
2018-07-24T00:10:21.753Z,22.20
2018-07-24T00:12:50.504Z,15.40
2018-07-24T00:15:19.281Z,17.50
2018-07-24T00:17:48.098Z,16.53
2018-07-24T00:20:16.907Z,20.10
2018-07-24T00:22:45.803Z,18.13
2018-07-24T00:25:14.688Z,16.60
2018-07-24T00:27:43.562Z,24.83
2018-07-24T00:30:12.370Z,17.97
2018-07-24T00:32:41.057Z,22.40
2018-07-24T00:35:09.806Z,26.80
2018-07-24T00:37:38.678Z,19.40
2018-07-24T00:40:07.492Z,20.37
2018-07-24T00:42:37.021Z,18.83
2018-07-24T00:45:05.854Z,24.53
2018-07-24T00:47:34.942Z,20.87
2018-07-24T00:50:03.898Z,20.77
2018-07-24T00:52:32.809Z,19.30
2018-07-24T00:55:01.753Z,22.53
2018-07-24T00:57:30.595Z,19.30
2018-07-24T00:59:59.379Z,18.90
2018-07-24T01:02:28.148Z,29.33
2018-07-24T01:04:56.906Z,26.13
2018-07-24T01:07:28.064Z,21.17
2018-07-24T01:09:56.835Z,20.50
2018-07-24T01:12:25.801Z,20.70
2018-07-24T01:14:54.680Z,19.60
2018-07-24T01:17:23.544Z,20.10
2018-07-24T01:19:52.417Z,20.30
2018-07-24T01:22:21.284Z,21.00
2018-07-24T01:24:50.077Z,21.60
2018-07-24T01:27:19.026Z,19.30
2018-07-24T01:29:47.840Z,21.93
2018-07-24T01:32:16.770Z,18.97
2018-07-24T01:34:45.705Z,20.30
2018-07-24T01:37:14.442Z,26.03
2018-07-24T01:39:43.508Z,22.87
2018-07-24T01:42:12.201Z,21.90
2018-07-24T01:44:40.978Z,27.53
2018-07-24T01:47:10.269Z,22.20
2018-07-24T01:49:39.030Z,20.93
2018-07-24T01:52:07.778Z,23.17
2018-07-24T01:54:36.741Z,23.03
2018-07-24T01:57:05.509Z,25.10
2018-07-24T01:59:34.253Z,19.30
2018-07-24T02:02:03.174Z,20.50
2018-07-24T02:04:31.996Z,18.70
2018-07-24T02:07:00.966Z,25.83
2018-07-24T02:09:29.780Z,26.10
2018-07-24T02:11:58.826Z,23.17
2018-07-24T02:14:28.140Z,24.13
2018-07-24T02:16:57.111Z,20.13
2018-07-24T02:19:25.993Z,18.40
2018-07-24T02:21:54.865Z,22.70
2018-07-24T02:24:23.761Z,20.50
2018-07-24T02:26:52.451Z,23.10
2018-07-24T02:29:21.244Z,24.83
2018-07-24T02:31:50.001Z,25.67
2018-07-24T02:34:18.866Z,17.77
2018-07-24T02:36:47.538Z,21.17
2018-07-24T02:39:16.448Z,25.13
2018-07-24T02:41:45.218Z,23.60
2018-07-24T02:44:13.982Z,22.60
2018-07-24T02:46:42.702Z,24.90
2018-07-24T02:49:11.522Z,22.03
2018-07-24T02:51:40.270Z,26.10
2018-07-24T02:54:09.025Z,21.60
2018-07-24T02:56:37.957Z,21.03
2018-07-24T02:59:07.289Z,24.40
2018-07-24T03:01:36.219Z,24.73
2018-07-24T03:04:05.001Z,32.83
2018-07-24T03:06:33.818Z,22.70
2018-07-24T03:09:02.609Z,21.27
2018-07-24T03:11:31.516Z,26.43
2018-07-24T03:14:00.297Z,24.90
2018-07-24T03:16:29.129Z,23.53
2018-07-24T03:18:57.987Z,23.03
2018-07-24T03:21:26.784Z,23.50
2018-07-24T03:23:55.549Z,22.43
2018-07-24T03:26:24.489Z,30.43
2018-07-24T03:28:53.393Z,21.63
2018-07-24T03:31:22.213Z,22.90
2018-07-24T03:33:51.242Z,21.57
2018-07-24T03:36:20.053Z,19.33
2018-07-24T03:38:48.937Z,24.53
2018-07-24T03:41:17.846Z,22.63
2018-07-24T03:43:46.606Z,22.80
2018-07-24T03:46:15.437Z,23.60
2018-07-24T03:48:44.077Z,20.33
2018-07-24T03:51:13.499Z,28.43
2018-07-24T03:53:42.430Z,22.20
2018-07-24T03:56:11.259Z,29.73
2018-07-24T03:58:40.126Z,24.13
2018-07-24T04:01:08.950Z,22.37
2018-07-24T04:03:37.705Z,26.50
2018-07-24T04:06:06.623Z,24.60
2018-07-24T04:08:35.386Z,23.83
2018-07-24T04:11:04.433Z,28.00
2018-07-24T04:13:33.105Z,18.23
2018-07-24T04:16:01.855Z,24.67
2018-07-24T04:18:34.689Z,22.40
2018-07-24T04:21:03.421Z,25.13
2018-07-24T04:23:32.206Z,20.70
2018-07-24T04:26:00.942Z,26.43
2018-07-24T04:28:29.711Z,21.90
2018-07-24T04:30:58.481Z,20.53
2018-07-24T04:33:27.378Z,22.80
2018-07-24T04:35:57.085Z,20.73
2018-07-24T04:38:26.146Z,22.60
2018-07-24T04:40:55.066Z,27.13
2018-07-24T04:43:24.225Z,22.47
2018-07-24T04:45:53.063Z,22.00
2018-07-24T04:48:21.995Z,23.33
2018-07-24T04:50:50.931Z,29.90
2018-07-24T04:53:19.738Z,22.23
2018-07-24T04:55:48.761Z,24.30
2018-07-24T04:58:17.545Z,23.57
2018-07-24T05:00:46.256Z,24.37
2018-07-24T05:03:15.207Z,22.60
2018-07-24T05:05:44.087Z,27.10
2018-07-24T05:08:12.885Z,21.60
2018-07-24T05:10:41.770Z,25.13
2018-07-24T05:13:10.609Z,28.53
2018-07-24T05:15:39.378Z,21.13
2018-07-24T05:18:08.550Z,24.50
2018-07-24T05:20:37.397Z,21.30
2018-07-24T05:23:06.241Z,33.00
2018-07-24T05:25:35.013Z,21.33
2018-07-24T05:28:04.167Z,21.10
2018-07-24T05:30:32.944Z,27.00
2018-07-24T05:33:01.699Z,28.20
2018-07-24T05:35:30.621Z,20.23
2018-07-24T05:37:59.466Z,24.57
2018-07-24T05:40:28.382Z,20.43
2018-07-24T05:42:57.159Z,23.83
2018-07-24T05:45:26.166Z,20.60
2018-07-24T05:47:55.193Z,20.57
2018-07-24T05:50:24.162Z,29.37
2018-07-24T05:52:52.987Z,22.30
2018-07-24T05:55:22.150Z,23.00
2018-07-24T05:57:51.178Z,21.73
2018-07-24T06:00:20.278Z,22.33
2018-07-24T06:02:49.038Z,22.90
2018-07-24T06:05:17.997Z,26.87
2018-07-24T06:07:46.914Z,23.17
2018-07-24T06:10:15.729Z,22.50
2018-07-24T06:12:44.597Z,19.77
2018-07-24T06:15:13.383Z,17.03
2018-07-24T06:17:42.505Z,23.63
2018-07-24T06:20:11.868Z,18.90
2018-07-24T06:22:40.876Z,18.93
2018-07-24T06:25:09.602Z,19.70
2018-07-24T06:27:38.609Z,26.80
2018-07-24T06:30:08.154Z,20.10
2018-07-24T06:32:37.029Z,20.43
2018-07-24T06:35:06.010Z,22.40
2018-07-24T06:37:34.908Z,19.50
2018-07-24T06:40:04.230Z,21.10
2018-07-24T06:42:33.126Z,20.33
2018-07-24T06:45:01.927Z,20.93
2018-07-24T06:47:30.688Z,20.83
2018-07-24T06:49:59.792Z,27.13
2018-07-24T06:52:28.808Z,18.90
2018-07-24T06:54:57.607Z,28.13
2018-07-24T06:57:26.565Z,21.50
2018-07-24T06:59:55.501Z,21.83
2018-07-24T07:02:24.486Z,25.77
2018-07-24T07:04:53.314Z,17.83
2018-07-24T07:07:22.351Z,20.93
2018-07-24T07:09:51.270Z,17.80
2018-07-24T07:12:20.071Z,18.60
2018-07-24T07:14:49.059Z,31.20
2018-07-24T07:17:17.796Z,26.30
2018-07-24T07:19:46.654Z,26.30
2018-07-24T07:22:15.498Z,20.50
2018-07-24T07:24:44.263Z,17.50
2018-07-24T07:27:12.995Z,17.70
2018-07-24T07:29:41.909Z,17.00
2018-07-24T07:32:10.719Z,19.03
2018-07-24T07:34:39.598Z,17.27
2018-07-24T07:37:08.340Z,19.93
2018-07-24T07:39:37.238Z,24.00
2018-07-24T07:42:06.116Z,13.83
2018-07-24T07:44:35.131Z,14.80
2018-07-24T07:47:04.154Z,16.03
2018-07-24T07:49:33.108Z,17.43
2018-07-24T07:52:02.107Z,15.00
2018-07-24T07:54:30.967Z,14.13
2018-07-24T07:56:59.704Z,16.13
2018-07-24T07:59:28.463Z,14.20
2018-07-24T08:01:57.498Z,18.50
2018-07-24T08:04:26.499Z,18.97
2018-07-24T08:06:55.198Z,17.30
2018-07-24T08:09:24.046Z,13.43
2018-07-24T08:11:52.838Z,16.93
2018-07-24T08:14:21.828Z,11.20
2018-07-24T08:16:50.619Z,15.70
2018-07-24T08:19:19.490Z,12.43
2018-07-24T08:21:48.561Z,24.77
2018-07-24T08:24:17.459Z,10.53
2018-07-24T08:26:46.237Z,14.50
2018-07-24T08:29:15.446Z,13.20
2018-07-24T08:31:44.538Z,10.17
2018-07-24T08:34:13.218Z,13.43
2018-07-24T08:36:42.169Z,14.70
2018-07-24T08:39:12.218Z,15.03
2018-07-24T08:41:41.589Z,11.37
2018-07-24T08:44:10.562Z,10.87
2018-07-24T08:46:39.799Z,13.63
2018-07-24T08:49:08.791Z,12.53
2018-07-24T08:51:37.641Z,11.87
2018-07-24T08:54:06.699Z,15.07
2018-07-24T08:56:36.039Z,15.93
2018-07-24T08:59:05.125Z,14.63
2018-07-24T09:01:34.105Z,12.83
2018-07-24T09:04:02.998Z,12.20
2018-07-24T09:06:32.010Z,10.90
2018-07-24T09:09:00.837Z,17.13
2018-07-24T09:11:30.028Z,11.00
2018-07-24T09:13:58.834Z,15.63
2018-07-24T09:16:27.646Z,10.00
2018-07-24T09:18:56.914Z,13.40
2018-07-24T09:21:26.008Z,15.30
2018-07-24T09:23:55.071Z,12.90
2018-07-24T09:26:23.885Z,13.00
2018-07-24T09:28:53.034Z,8.10
2018-07-24T09:31:21.897Z,11.93
2018-07-24T09:33:50.715Z,9.00
2018-07-24T09:36:20.461Z,9.67
2018-07-24T09:38:49.315Z,9.10
2018-07-24T09:41:18.207Z,15.80
2018-07-24T09:43:47.288Z,9.80
2018-07-24T09:46:16.161Z,8.40
2018-07-24T09:48:46.721Z,9.17
2018-07-24T09:51:15.927Z,9.07
2018-07-24T09:53:44.762Z,9.07
2018-07-24T09:56:13.929Z,9.30
2018-07-24T09:58:42.746Z,7.50
2018-07-24T10:01:16.853Z,17.67
2018-07-24T10:03:46.650Z,9.00
2018-07-24T10:06:15.557Z,9.93
2018-07-24T10:08:44.525Z,8.43
2018-07-24T10:11:13.282Z,12.40
2018-07-24T10:13:42.005Z,8.80
2018-07-24T10:16:10.850Z,13.43
2018-07-24T10:18:39.609Z,10.70
2018-07-24T10:21:08.569Z,6.97
2018-07-24T10:23:37.396Z,7.27
2018-07-24T10:26:06.381Z,6.70
2018-07-24T10:28:35.574Z,10.27
2018-07-24T10:31:04.363Z,7.97
2018-07-24T10:33:33.155Z,17.50
2018-07-24T10:36:01.947Z,5.07
2018-07-24T10:38:30.887Z,6.43
2018-07-24T10:40:59.758Z,5.97
2018-07-24T10:43:28.578Z,6.00
2018-07-24T10:45:57.434Z,7.83
2018-07-24T10:48:26.266Z,14.50
2018-07-24T10:50:55.115Z,6.83
2018-07-24T10:53:24.134Z,5.93
2018-07-24T10:55:53.212Z,7.60
2018-07-24T10:58:22.160Z,6.40
2018-07-24T11:00:50.963Z,9.97
2018-07-24T11:03:20.209Z,23.60
2018-07-24T11:05:49.163Z,7.63
2018-07-24T11:08:18.035Z,8.00
2018-07-24T11:10:46.807Z,7.00
2018-07-24T11:13:15.663Z,8.00
2018-07-24T11:15:44.698Z,14.27
2018-07-24T11:18:13.825Z,10.30
2018-07-24T11:20:42.709Z,10.90
2018-07-24T11:23:12.123Z,10.03
2018-07-24T11:25:40.862Z,10.60
2018-07-24T11:28:09.754Z,6.73
2018-07-24T11:30:38.451Z,6.67
2018-07-24T11:33:07.350Z,8.77
2018-07-24T11:35:36.393Z,9.90
2018-07-24T11:38:05.879Z,10.50
2018-07-24T11:40:35.050Z,6.70
2018-07-24T11:43:04.076Z,8.40
2018-07-24T11:45:33.120Z,6.70
2018-07-24T11:48:02.214Z,15.33
2018-07-24T11:50:31.298Z,7.80
2018-07-24T11:53:00.329Z,16.00
2018-07-24T11:55:29.232Z,7.00
2018-07-24T11:57:58.370Z,9.97
2018-07-24T12:00:27.201Z,6.27
2018-07-24T12:02:56.313Z,19.17
2018-07-24T12:05:25.280Z,7.00
2018-07-24T12:07:54.102Z,5.47
2018-07-24T12:10:22.948Z,9.27
2018-07-24T12:12:52.020Z,12.23
2018-07-24T12:15:20.877Z,8.63
2018-07-24T12:17:49.786Z,8.13
2018-07-24T12:20:18.723Z,6.70
2018-07-24T12:22:47.723Z,9.50
2018-07-24T12:25:16.573Z,6.40
2018-07-24T12:27:45.625Z,6.13
2018-07-24T12:30:14.519Z,5.77
2018-07-24T12:32:43.345Z,7.50
2018-07-24T12:35:12.095Z,12.13
2018-07-24T12:37:41.254Z,6.20
2018-07-24T12:40:10.204Z,4.73
2018-07-24T12:42:39.202Z,4.90
2018-07-24T12:45:08.353Z,4.90
2018-07-24T12:47:37.070Z,4.53
2018-07-24T12:50:06.779Z,4.40
2018-07-24T12:52:35.852Z,5.40
2018-07-24T12:55:04.922Z,10.03
2018-07-24T12:57:33.858Z,5.93
2018-07-24T13:00:03.566Z,5.00
2018-07-24T13:02:32.516Z,4.43
2018-07-24T13:05:01.611Z,4.60
2018-07-24T13:07:30.643Z,7.70
2018-07-24T13:09:59.498Z,7.03
2018-07-24T13:12:28.536Z,4.97
2018-07-24T13:14:57.368Z,4.07
2018-07-24T13:17:26.332Z,4.00
2018-07-24T13:19:55.140Z,3.60
2018-07-24T13:22:24.046Z,8.80
2018-07-24T13:24:52.884Z,4.50
2018-07-24T13:27:21.706Z,5.27
2018-07-24T13:29:50.386Z,4.33
2018-07-24T13:32:19.135Z,5.53
2018-07-24T13:34:48.106Z,4.23
2018-07-24T13:37:16.822Z,5.70
2018-07-24T13:39:45.626Z,3.23
2018-07-24T13:42:14.383Z,4.33
2018-07-24T13:44:43.251Z,4.10
2018-07-24T13:47:12.024Z,4.30
2018-07-24T13:49:41.077Z,3.57
2018-07-24T13:52:10.298Z,5.93
2018-07-24T13:54:39.493Z,3.50
2018-07-24T13:57:08.675Z,5.00
2018-07-24T13:59:37.381Z,4.30
2018-07-24T14:02:06.259Z,3.80
2018-07-24T14:04:35.074Z,3.43
2018-07-24T14:07:07.409Z,7.83
2018-07-24T14:09:36.189Z,6.33
2018-07-24T14:12:05.119Z,4.07
2018-07-24T14:14:34.022Z,3.83
2018-07-24T14:17:02.912Z,4.70
2018-07-24T14:19:31.978Z,6.40
2018-07-24T14:22:01.390Z,4.93
2018-07-24T14:24:30.304Z,5.00
2018-07-24T14:26:59.220Z,5.67
2018-07-24T14:29:28.411Z,6.87
2018-07-24T14:31:57.533Z,5.03
2018-07-24T14:34:26.842Z,6.70
2018-07-24T14:36:55.945Z,5.37
2018-07-24T14:39:25.078Z,6.90
2018-07-24T14:41:54.487Z,10.87
2018-07-24T14:44:25.737Z,5.07
2018-07-24T14:46:55.017Z,4.27
2018-07-24T14:49:23.997Z,6.10
2018-07-24T14:51:52.942Z,6.00
2018-07-24T14:54:22.293Z,14.87
2018-07-24T14:56:51.367Z,5.33
2018-07-24T14:59:20.281Z,9.53
2018-07-24T15:01:48.984Z,7.03
2018-07-24T15:04:17.807Z,12.10
2018-07-24T15:06:46.719Z,5.57
2018-07-24T15:09:15.567Z,6.20
2018-07-24T15:11:44.351Z,7.50
2018-07-24T15:14:13.484Z,5.30
2018-07-24T15:16:42.344Z,6.93
2018-07-24T15:19:11.070Z,13.07
2018-07-24T15:21:39.916Z,6.33
2018-07-24T15:24:08.810Z,6.53
2018-07-24T15:26:37.755Z,7.20
2018-07-24T15:29:06.645Z,5.10
2018-07-24T15:31:35.595Z,5.37
2018-07-24T15:34:04.929Z,8.70
2018-07-24T15:36:33.853Z,9.90
2018-07-24T15:39:03.132Z,7.33
2018-07-24T15:41:31.931Z,10.90
2018-07-24T15:44:00.663Z,9.63
2018-07-24T15:46:29.558Z,5.03
2018-07-24T15:48:58.441Z,7.17
2018-07-24T15:51:27.534Z,15.20
2018-07-24T15:53:56.837Z,8.53
2018-07-24T15:56:25.713Z,11.03
2018-07-24T15:58:54.853Z,10.93
2018-07-24T16:01:23.652Z,6.63
2018-07-24T16:03:52.368Z,5.47
2018-07-24T16:06:21.704Z,9.07
2018-07-24T16:08:50.461Z,5.60
2018-07-24T16:11:19.484Z,5.07
2018-07-24T16:13:48.416Z,5.10
2018-07-24T16:16:17.477Z,5.80
2018-07-24T16:18:46.400Z,5.50
2018-07-24T16:21:15.192Z,4.93
2018-07-24T16:23:43.972Z,4.33
2018-07-24T16:26:12.919Z,4.90
2018-07-24T16:28:41.781Z,4.30
2018-07-24T16:31:10.616Z,4.80
2018-07-24T16:33:39.557Z,4.43
2018-07-24T16:36:08.491Z,4.43
2018-07-24T16:38:37.802Z,5.73
2018-07-24T16:41:06.819Z,6.23
2018-07-24T16:43:35.686Z,12.00
2018-07-24T16:46:04.539Z,7.53
2018-07-24T16:48:33.425Z,16.60
2018-07-24T16:51:02.318Z,4.20
2018-07-24T16:53:31.131Z,4.17
2018-07-24T16:56:00.363Z,6.00
2018-07-24T16:58:29.146Z,12.90
2018-07-24T17:00:58.015Z,6.10
2018-07-24T17:03:27.091Z,4.23
2018-07-24T17:05:55.985Z,8.50
2018-07-24T17:08:24.750Z,12.10
2018-07-24T17:10:53.534Z,6.73
2018-07-24T17:13:22.629Z,6.80
2018-07-24T17:15:51.876Z,5.80
2018-07-24T17:18:20.877Z,9.20
2018-07-24T17:20:49.826Z,23.53
2018-07-24T17:23:18.875Z,8.10
2018-07-24T17:25:47.926Z,5.83
2018-07-24T17:28:16.960Z,4.23
2018-07-24T17:30:45.982Z,4.83
2018-07-24T17:33:14.800Z,5.50
2018-07-24T17:35:43.831Z,4.67
2018-07-24T17:38:12.653Z,4.87
2018-07-24T17:40:41.615Z,5.97
2018-07-24T17:43:10.634Z,4.27
2018-07-24T17:45:39.777Z,6.20
2018-07-24T17:48:09.040Z,11.03
2018-07-24T17:50:38.246Z,14.57
2018-07-24T17:53:07.136Z,5.43
2018-07-24T17:55:35.998Z,9.70
2018-07-24T17:58:05.225Z,7.53
2018-07-24T18:00:34.447Z,7.17
2018-07-24T18:03:04.391Z,5.13
2018-07-24T18:05:33.221Z,4.47
2018-07-24T18:08:02.108Z,4.80
2018-07-24T18:10:30.969Z,5.47
2018-07-24T18:13:00.092Z,5.13
2018-07-24T18:15:29.175Z,4.70
2018-07-24T18:17:58.161Z,5.40
2018-07-24T18:20:26.935Z,7.63
2018-07-24T18:22:55.921Z,4.80
2018-07-24T18:25:24.674Z,4.53
2018-07-24T18:27:53.514Z,4.93
2018-07-24T18:30:22.356Z,5.13
2018-07-24T18:32:51.338Z,4.47
2018-07-24T18:35:20.221Z,8.33
2018-07-24T18:37:49.225Z,9.80
2018-07-24T18:40:18.096Z,7.70
2018-07-24T18:42:46.849Z,5.53
2018-07-24T18:45:15.592Z,4.40
2018-07-24T18:47:44.452Z,9.07
2018-07-24T18:50:13.144Z,7.03
2018-07-24T18:52:41.833Z,6.17
2018-07-24T18:55:13.623Z,6.33
2018-07-24T18:57:42.382Z,6.47
2018-07-24T19:00:11.445Z,11.70
2018-07-24T19:02:40.788Z,6.80
2018-07-24T19:05:09.737Z,10.40
2018-07-24T19:07:38.733Z,9.80
2018-07-24T19:10:07.655Z,11.20
2018-07-24T19:12:36.468Z,9.83
2018-07-24T19:15:06.583Z,9.77
2018-07-24T19:17:35.335Z,14.70
2018-07-24T19:20:04.455Z,12.80
2018-07-24T19:22:33.196Z,10.63
2018-07-24T19:25:02.086Z,16.10
2018-07-24T19:27:30.825Z,11.83
2018-07-24T19:30:06.153Z,13.03
2018-07-24T19:32:34.957Z,12.00
2018-07-24T19:35:03.960Z,10.20
2018-07-24T19:37:32.748Z,9.97
2018-07-24T19:40:01.669Z,12.60
2018-07-24T19:42:30.746Z,20.83
2018-07-24T19:44:59.560Z,12.70
2018-07-24T19:47:28.380Z,13.50
2018-07-24T19:49:57.140Z,10.40
2018-07-24T19:52:25.890Z,13.70
2018-07-24T19:54:54.648Z,12.93
2018-07-24T19:57:23.531Z,9.70
2018-07-24T19:59:52.349Z,12.00
2018-07-24T20:02:21.297Z,13.13
2018-07-24T20:04:50.273Z,11.47
2018-07-24T20:07:19.235Z,11.83
2018-07-24T20:09:50.038Z,13.20
2018-07-24T20:12:19.744Z,14.57
2018-07-24T20:14:48.549Z,8.60
2018-07-24T20:17:17.924Z,9.37
2018-07-24T20:19:46.690Z,7.17
2018-07-24T20:22:15.618Z,15.50
2018-07-24T20:24:44.729Z,9.17
2018-07-24T20:27:14.012Z,9.07
2018-07-24T20:29:43.538Z,9.03
2018-07-24T20:32:12.761Z,8.40
2018-07-24T20:34:41.641Z,8.33
2018-07-24T20:37:10.736Z,8.13
2018-07-24T20:39:39.829Z,12.33
2018-07-24T20:42:08.638Z,10.20
2018-07-24T20:44:37.396Z,12.03
2018-07-24T20:47:06.202Z,8.73
2018-07-24T20:49:35.077Z,8.43
2018-07-24T20:52:03.909Z,9.23
2018-07-24T20:54:33.055Z,8.17
2018-07-24T20:57:02.270Z,8.77
2018-07-24T20:59:31.049Z,12.83
2018-07-24T21:01:59.957Z,9.13
2018-07-24T21:04:28.835Z,8.13
2018-07-24T21:06:57.516Z,11.63
2018-07-24T21:09:26.305Z,12.23
2018-07-24T21:11:55.270Z,8.70
2018-07-24T21:14:24.025Z,11.80
2018-07-24T21:16:52.769Z,10.67
2018-07-24T21:19:21.637Z,8.93
2018-07-24T21:21:50.365Z,14.80
2018-07-24T21:24:19.355Z,13.33
2018-07-24T21:26:48.274Z,9.70
2018-07-24T21:29:17.257Z,15.67
2018-07-24T21:31:45.977Z,10.20
2018-07-24T21:34:14.866Z,16.50
2018-07-24T21:36:43.635Z,10.30
2018-07-24T21:39:13.046Z,14.53
2018-07-24T21:41:41.780Z,13.00
2018-07-24T21:44:10.641Z,16.00
2018-07-24T21:46:39.659Z,9.83
2018-07-24T21:49:08.724Z,14.80
2018-07-24T21:51:37.584Z,14.27
2018-07-24T21:54:06.441Z,9.17
2018-07-24T21:56:35.314Z,10.97
2018-07-24T21:59:04.179Z,15.33
2018-07-24T22:01:32.896Z,13.67
2018-07-24T22:04:01.732Z,10.00
2018-07-24T22:06:30.683Z,13.43
2018-07-24T22:08:59.593Z,13.00
2018-07-24T22:11:28.257Z,11.47
2018-07-24T22:13:57.181Z,17.87
2018-07-24T22:16:25.957Z,15.40
2018-07-24T22:18:55.087Z,14.10
2018-07-24T22:21:24.119Z,15.50
2018-07-24T22:23:53.243Z,10.80
2018-07-24T22:26:22.387Z,17.50
2018-07-24T22:28:51.361Z,13.97
2018-07-24T22:31:20.495Z,18.70
2018-07-24T22:33:49.532Z,20.60
2018-07-24T22:36:18.460Z,24.13
2018-07-24T22:38:47.367Z,13.23
2018-07-24T22:41:16.419Z,25.03
2018-07-24T22:43:45.118Z,17.27
2018-07-24T22:46:14.161Z,12.77
2018-07-24T22:48:43.178Z,10.53
2018-07-24T22:51:12.203Z,15.03
2018-07-24T22:53:41.082Z,20.03
2018-07-24T22:56:09.877Z,11.93
2018-07-24T22:58:38.849Z,12.20
2018-07-24T23:01:07.886Z,14.17
2018-07-24T23:03:36.658Z,17.60
2018-07-24T23:06:05.778Z,11.80
2018-07-24T23:08:34.620Z,11.93
2018-07-24T23:11:03.760Z,15.17
2018-07-24T23:13:32.673Z,19.60
2018-07-24T23:16:01.533Z,13.13
2018-07-24T23:18:30.550Z,16.43
2018-07-24T23:20:59.461Z,24.43
2018-07-24T23:23:28.408Z,13.20
2018-07-24T23:25:57.729Z,12.00
2018-07-24T23:28:26.678Z,16.20
2018-07-24T23:30:55.787Z,14.10
2018-07-24T23:33:25.202Z,16.50
2018-07-24T23:35:54.023Z,14.43
2018-07-24T23:38:22.837Z,13.80
2018-07-24T23:40:51.918Z,14.23
2018-07-24T23:43:20.769Z,10.90
2018-07-24T23:45:49.598Z,14.03
2018-07-24T23:48:18.348Z,23.00
2018-07-24T23:50:47.337Z,11.77
2018-07-24T23:53:16.211Z,12.00
2018-07-24T23:55:45.066Z,12.57
2018-07-24T23:58:13.896Z,10.00
